Time;durP1;ratioP1;P1;durP2;ratioP2;P2;SDS_P1;SDS_P2;PMS_P1;PMS_P2;Temp;Humidity;BMP_temperature;BMP_pressure;BME280_temperature;BME280_humidity;BME280_pressure;Samples;Min_cycle;Max_cycle;Signal;HPM_P1;HPM_P2
2023/05/13 00:00:33;;;;;;;13.83;7.73;;;11.50;99.90;;;;;;5115743;28;20198;-51
2023/05/13 00:02:59;;;;;;;9.13;7.80;;;11.50;99.90;;;;;;5115513;28;20212;-51
2023/05/13 00:05:24;;;;;;;10.00;7.33;;;11.50;99.90;;;;;;5115528;28;20201;-51
2023/05/13 00:07:50;;;;;;;11.13;7.37;;;11.40;99.90;;;;;;5114170;28;20308;-51
2023/05/13 00:10:16;;;;;;;9.03;8.07;;;11.40;99.90;;;;;;5115197;28;20531;-51
2023/05/13 00:12:41;;;;;;;10.90;7.40;;;11.40;99.90;;;;;;5115258;28;20201;-50
2023/05/13 00:15:07;;;;;;;11.30;8.00;;;11.30;99.90;;;;;;5115294;28;20542;-52
2023/05/13 00:17:33;;;;;;;12.57;7.93;;;11.30;99.90;;;;;;5115266;28;20515;-49
2023/05/13 00:19:58;;;;;;;9.73;7.20;;;11.20;99.90;;;;;;5115140;28;20174;-50
2023/05/13 00:22:24;;;;;;;8.50;7.13;;;11.20;99.90;;;;;;5114961;28;20260;-51
2023/05/13 00:24:49;;;;;;;10.73;7.20;;;11.10;99.90;;;;;;5114825;28;20635;-50
2023/05/13 00:27:15;;;;;;;8.40;6.63;;;11.10;99.90;;;;;;5114780;28;20174;-49
2023/05/13 00:29:41;;;;;;;9.63;7.40;;;11.10;99.90;;;;;;5115117;28;20173;-50
2023/05/13 00:32:06;;;;;;;9.67;6.97;;;11.00;99.90;;;;;;5115148;28;20260;-49
2023/05/13 00:34:32;;;;;;;8.30;7.03;;;11.00;99.90;;;;;;5114706;28;20185;-51
2023/05/13 00:36:58;;;;;;;11.57;7.13;;;11.00;99.90;;;;;;5113592;28;20646;-50
2023/05/13 00:39:24;;;;;;;10.23;7.80;;;10.90;99.90;;;;;;5114858;28;20215;-51
2023/05/13 00:41:49;;;;;;;9.60;7.67;;;10.90;99.90;;;;;;5114447;28;20691;-52
2023/05/13 00:44:15;;;;;;;7.57;6.77;;;10.80;99.90;;;;;;5114432;28;20195;-49
2023/05/13 00:46:41;;;;;;;8.93;8.07;;;10.80;99.90;;;;;;5114425;28;20227;-50
2023/05/13 00:49:07;;;;;;;8.67;7.57;;;10.70;99.90;;;;;;5114529;28;20177;-49
2023/05/13 00:51:33;;;;;;;9.30;7.60;;;10.70;99.90;;;;;;5114658;28;20565;-50
2023/05/13 00:53:59;;;;;;;11.93;8.07;;;10.70;99.90;;;;;;5114492;28;20201;-50
2023/05/13 00:56:25;;;;;;;11.90;8.53;;;10.60;99.90;;;;;;5114605;28;20197;-50
2023/05/13 00:58:51;;;;;;;12.33;8.70;;;10.60;99.90;;;;;;5114398;28;20178;-49
2023/05/13 01:01:42;;;;;;;10.17;8.33;;;10.60;99.90;;;;;;5114328;28;20568;-50
2023/05/13 01:04:23;;;;;;;12.40;8.67;;;10.60;99.90;;;;;;5112778;28;20197;-49
2023/05/13 01:07:06;;;;;;;8.33;7.40;;;10.50;99.90;;;;;;5114126;28;20169;-49
2023/05/13 01:09:54;;;;;;;11.30;8.13;;;10.50;99.90;;;;;;5114088;28;20162;-50
2023/05/13 01:12:32;;;;;;;9.00;7.90;;;10.50;99.90;;;;;;5114226;28;20210;-52
2023/05/13 01:15:04;;;;;;;8.93;7.93;;;10.40;99.90;;;;;;5114309;28;20170;-49
2023/05/13 01:17:40;;;;;;;9.80;8.17;;;10.40;99.90;;;;;;5114111;28;20189;-50
2023/05/13 01:20:07;;;;;;;9.87;8.30;;;10.30;99.90;;;;;;5114481;28;20211;-51
2023/05/13 01:22:33;;;;;;;9.17;7.80;;;10.30;99.90;;;;;;5114368;28;20605;-49
2023/05/13 01:24:59;;;;;;;10.80;7.50;;;10.30;99.90;;;;;;5114396;28;20223;-51
2023/05/13 01:27:24;;;;;;;10.87;8.33;;;10.20;99.90;;;;;;5113870;28;20189;-50
2023/05/13 01:29:51;;;;;;;10.53;8.13;;;10.20;99.90;;;;;;5113803;28;20208;-53
2023/05/13 01:32:17;;;;;;;8.80;7.90;;;10.20;99.90;;;;;;5113944;28;20173;-52
2023/05/13 01:34:45;;;;;;;10.50;8.37;;;10.20;99.90;;;;;;5113675;28;20192;-50
2023/05/13 01:37:10;;;;;;;11.17;9.13;;;10.10;99.90;;;;;;5113649;28;20193;-50
2023/05/13 01:39:37;;;;;;;13.27;9.10;;;10.10;99.90;;;;;;5113663;28;20215;-49
2023/05/13 01:42:03;;;;;;;9.17;8.27;;;10.10;99.90;;;;;;5113557;28;20247;-50
2023/05/13 01:44:30;;;;;;;9.90;8.90;;;10.10;99.90;;;;;;5113666;28;20180;-51
2023/05/13 01:46:55;;;;;;;11.40;9.27;;;10.10;99.90;;;;;;5113976;28;20198;-52
2023/05/13 01:49:21;;;;;;;8.97;8.03;;;10.10;99.90;;;;;;5114147;28;20529;-50
2023/05/13 01:51:46;;;;;;;12.27;9.00;;;10.00;99.90;;;;;;5113864;28;20229;-52
2023/05/13 01:54:12;;;;;;;9.70;8.70;;;10.00;99.90;;;;;;5113508;28;20697;-49
2023/05/13 01:56:38;;;;;;;11.57;8.80;;;10.00;99.90;;;;;;5114371;28;20226;-50
2023/05/13 01:59:03;;;;;;;8.97;8.07;;;9.90;99.90;;;;;;5113984;28;20201;-51
2023/05/13 02:01:29;;;;;;;11.13;8.63;;;9.90;99.90;;;;;;5113674;28;20669;-49
2023/05/13 02:03:58;;;;;;;9.50;8.50;;;9.90;99.90;;;;;;5113969;28;20200;-51
2023/05/13 02:06:24;;;;;;;10.57;8.53;;;9.80;99.90;;;;;;5114042;28;20231;-50
2023/05/13 02:08:49;;;;;;;12.03;9.03;;;9.90;99.90;;;;;;5113581;28;20174;-51
2023/05/13 02:11:15;;;;;;;9.83;8.37;;;9.80;99.90;;;;;;5116432;28;20232;-51
2023/05/13 02:13:41;;;;;;;11.50;8.53;;;9.80;99.90;;;;;;5117440;28;20258;-50
2023/05/13 02:16:06;;;;;;;11.00;8.53;;;9.70;99.90;;;;;;5118504;28;20212;-51
2023/05/13 02:18:32;;;;;;;12.63;8.97;;;9.70;99.90;;;;;;5117311;28;20252;-51
2023/05/13 02:20:57;;;;;;;8.73;7.83;;;9.70;99.90;;;;;;5117215;28;20553;-50
2023/05/13 02:23:23;;;;;;;11.37;8.90;;;9.60;99.90;;;;;;5117131;28;20190;-50
2023/05/13 02:25:49;;;;;;;12.87;9.00;;;9.60;99.90;;;;;;5115903;28;20177;-49
2023/05/13 02:28:14;;;;;;;9.23;8.00;;;9.60;99.90;;;;;;5117401;28;20208;-51
2023/05/13 02:30:40;;;;;;;10.90;8.33;;;9.50;99.90;;;;;;5117369;28;20182;-50
2023/05/13 02:33:06;;;;;;;12.10;8.70;;;9.50;99.90;;;;;;5116990;28;20201;-50
2023/05/13 02:35:32;;;;;;;15.27;9.33;;;9.50;99.90;;;;;;5117103;28;20186;-49
2023/05/13 02:37:57;;;;;;;11.30;9.63;;;9.50;99.90;;;;;;5116839;28;20283;-50
2023/05/13 02:40:23;;;;;;;11.17;10.07;;;9.50;99.90;;;;;;5115642;28;20208;-50
2023/05/13 02:42:49;;;;;;;11.60;9.83;;;9.50;99.90;;;;;;5116687;28;20235;-50
2023/05/13 02:45:15;;;;;;;12.37;10.93;;;9.50;99.90;;;;;;5116773;28;20230;-49
2023/05/13 02:47:41;;;;;;;12.33;10.63;;;9.50;99.90;;;;;;5117030;28;20178;-50
2023/05/13 02:50:08;;;;;;;12.27;10.77;;;9.50;99.90;;;;;;5115409;28;20705;-51
2023/05/13 02:52:35;;;;;;;15.50;12.20;;;9.50;99.90;;;;;;5117116;28;20290;-50
2023/05/13 02:55:07;;;;;;;14.00;11.50;;;9.60;99.90;;;;;;5116624;28;20588;-51
2023/05/13 02:57:33;;;;;;;14.83;12.57;;;9.60;99.90;;;;;;5116587;28;20194;-49
2023/05/13 02:59:59;;;;;;;15.50;11.87;;;9.60;99.90;;;;;;5116877;28;20208;-52
2023/05/13 03:02:24;;;;;;;14.17;12.67;;;9.70;99.90;;;;;;5116360;28;20288;-50
2023/05/13 03:04:50;;;;;;;16.07;12.80;;;9.70;99.90;;;;;;5116692;28;20234;-50
2023/05/13 03:07:16;;;;;;;19.77;12.23;;;9.70;99.90;;;;;;5116371;28;20221;-51
2023/05/13 03:09:41;;;;;;;18.33;12.60;;;9.80;99.90;;;;;;5116342;28;20181;-49
2023/05/13 03:12:08;;;;;;;15.80;13.13;;;9.80;99.90;;;;;;5116188;28;20263;-52
2023/05/13 03:14:35;;;;;;;19.33;13.70;;;9.90;99.90;;;;;;5116288;28;20177;-50
2023/05/13 03:17:05;;;;;;;17.77;14.03;;;9.90;99.90;;;;;;5116478;28;20188;-50
2023/05/13 03:19:30;;;;;;;16.83;13.07;;;10.00;99.90;;;;;;5116182;28;20187;-51
2023/05/13 03:21:56;;;;;;;16.57;12.40;;;10.00;99.90;;;;;;5116285;28;20205;-49
2023/05/13 03:24:22;;;;;;;19.13;13.97;;;10.00;99.90;;;;;;5115970;28;20290;-50
2023/05/13 03:26:48;;;;;;;20.10;14.47;;;10.10;99.90;;;;;;5116028;28;20200;-52
2023/05/13 03:29:13;;;;;;;19.43;14.97;;;10.10;99.90;;;;;;5115964;28;20164;-51
2023/05/13 03:31:39;;;;;;;18.43;13.77;;;10.10;99.90;;;;;;5115906;28;20178;-51
2023/05/13 03:34:04;;;;;;;16.93;14.30;;;10.10;99.90;;;;;;5116056;28;20204;-51
2023/05/13 03:36:31;;;;;;;19.63;13.63;;;10.20;99.90;;;;;;5115749;28;20570;-51
2023/05/13 03:38:56;;;;;;;15.47;13.80;;;10.10;99.90;;;;;;5116337;28;20185;-49
2023/05/13 03:41:22;;;;;;;19.37;14.30;;;10.20;99.90;;;;;;5115611;28;20200;-51
2023/05/13 03:43:48;;;;;;;15.33;13.50;;;10.10;99.90;;;;;;5115858;28;20207;-52
2023/05/13 03:46:13;;;;;;;19.10;14.30;;;10.20;99.90;;;;;;5115853;28;20186;-51
2023/05/13 03:48:39;;;;;;;27.07;13.87;;;10.20;99.90;;;;;;5116133;28;20630;-45
2023/05/13 03:51:05;;;;;;;14.73;13.17;;;10.20;99.90;;;;;;5115802;28;20231;-46
2023/05/13 03:53:30;;;;;;;14.80;13.17;;;10.20;99.90;;;;;;5115671;28;20570;-46
2023/05/13 03:55:56;;;;;;;16.77;14.80;;;10.20;99.90;;;;;;5115724;28;20180;-47
2023/05/13 03:58:22;;;;;;;20.87;14.33;;;10.20;99.90;;;;;;5115371;28;20169;-45
2023/05/13 04:00:48;;;;;;;15.83;13.87;;;10.20;99.90;;;;;;5115259;28;20170;-49
2023/05/13 04:03:15;;;;;;;15.40;13.73;;;10.20;99.90;;;;;;5115401;28;20205;-45
2023/05/13 04:05:40;;;;;;;15.33;12.13;;;10.20;99.90;;;;;;5115493;28;20168;-45
2023/05/13 04:08:06;;;;;;;13.37;11.97;;;10.30;99.90;;;;;;5115633;28;20177;-46
2023/05/13 04:10:32;;;;;;;16.57;12.30;;;10.30;99.90;;;;;;5116145;28;20174;-44
2023/05/13 04:12:57;;;;;;;18.30;13.13;;;10.30;99.90;;;;;;5115240;28;20201;-46
2023/05/13 04:15:23;;;;;;;16.77;13.30;;;10.30;99.90;;;;;;5115313;28;20192;-45
2023/05/13 04:17:48;;;;;;;15.77;13.17;;;10.20;99.90;;;;;;5115363;28;20212;-43
2023/05/13 04:20:14;;;;;;;14.17;12.47;;;10.30;99.90;;;;;;5115077;28;20175;-45
2023/05/13 04:22:40;;;;;;;16.03;13.30;;;10.30;99.90;;;;;;5114703;28;20216;-47
2023/05/13 04:25:06;;;;;;;17.10;13.23;;;10.30;99.90;;;;;;5115393;28;20175;-46
2023/05/13 04:27:31;;;;;;;17.10;12.33;;;10.30;99.90;;;;;;5115074;28;20632;-46
2023/05/13 04:29:57;;;;;;;14.17;12.47;;;10.30;99.90;;;;;;5114804;28;20683;-44
2023/05/13 04:32:22;;;;;;;14.17;12.30;;;10.30;99.90;;;;;;5114925;28;20561;-46
2023/05/13 04:34:48;;;;;;;16.07;12.10;;;10.40;99.90;;;;;;5114959;28;20525;-43
2023/05/13 04:37:14;;;;;;;14.80;13.00;;;10.40;99.90;;;;;;5114002;28;20201;-43
2023/05/13 04:39:40;;;;;;;15.23;13.33;;;10.40;99.90;;;;;;5114850;28;20184;-45
2023/05/13 04:42:06;;;;;;;17.60;13.37;;;10.40;99.90;;;;;;5114430;28;20201;-46
2023/05/13 04:44:32;;;;;;;14.33;12.77;;;10.40;99.90;;;;;;5114507;28;20229;-44
2023/05/13 04:46:58;;;;;;;15.17;12.80;;;10.40;99.90;;;;;;5114451;28;20538;-45
2023/05/13 04:49:23;;;;;;;16.87;13.70;;;10.50;99.90;;;;;;5114348;28;20261;-44
2023/05/13 04:51:49;;;;;;;15.17;12.20;;;10.60;99.90;;;;;;5114595;28;20335;-44
2023/05/13 04:54:14;;;;;;;17.30;12.67;;;10.60;99.90;;;;;;5114510;28;20224;-45
2023/05/13 04:56:40;;;;;;;18.63;13.40;;;10.70;99.90;;;;;;5114548;28;20515;-44
2023/05/13 04:59:07;;;;;;;16.83;12.47;;;10.70;99.90;;;;;;5114356;28;20178;-43
2023/05/13 05:01:32;;;;;;;15.47;13.17;;;10.70;99.90;;;;;;5114505;28;20237;-43
2023/05/13 05:03:58;;;;;;;16.23;12.80;;;10.80;99.90;;;;;;5114241;28;20227;-46
2023/05/13 05:06:24;;;;;;;13.73;12.03;;;10.80;99.90;;;;;;5114386;28;20209;-44
2023/05/13 05:08:49;;;;;;;14.17;12.70;;;10.90;99.90;;;;;;5114374;28;20537;-46
2023/05/13 05:11:15;;;;;;;19.17;11.97;;;10.90;99.90;;;;;;5114056;28;20511;-45
2023/05/13 05:13:40;;;;;;;16.40;12.40;;;11.00;99.90;;;;;;5113876;28;20197;-44
2023/05/13 05:16:07;;;;;;;14.73;12.40;;;11.10;99.90;;;;;;5114257;28;20185;-45
2023/05/13 05:18:34;;;;;;;15.87;12.17;;;11.20;99.90;;;;;;5120074;28;20539;-47
2023/05/13 05:21:00;;;;;;;14.30;12.57;;;11.20;99.90;;;;;;5125288;28;20747;-44
2023/05/13 05:23:26;;;;;;;14.93;13.27;;;11.30;99.90;;;;;;5116895;28;20198;-46
2023/05/13 05:25:52;;;;;;;16.13;11.77;;;11.40;99.90;;;;;;5114508;28;20200;-44
2023/05/13 05:28:17;;;;;;;13.93;11.87;;;11.50;99.90;;;;;;5114150;28;20587;-46
2023/05/13 05:30:43;;;;;;;18.80;12.37;;;11.60;99.90;;;;;;5114083;28;20189;-46
2023/05/13 05:33:09;;;;;;;14.87;11.97;;;11.70;99.90;;;;;;5112892;28;20208;-45
2023/05/13 05:35:37;;;;;;;13.63;11.20;;;11.70;99.90;;;;;;5113988;28;20646;-44
2023/05/13 05:38:03;;;;;;;15.87;12.20;;;11.80;99.90;;;;;;5113642;28;20198;-46
2023/05/13 05:40:30;;;;;;;15.43;11.53;;;11.90;99.90;;;;;;5113635;28;20642;-42
2023/05/13 05:42:56;;;;;;;16.50;11.63;;;11.90;99.90;;;;;;5113790;28;20221;-45
2023/05/13 05:45:21;;;;;;;14.53;12.00;;;12.00;99.90;;;;;;5113682;28;20177;-45
2023/05/13 05:47:47;;;;;;;14.33;11.07;;;12.00;99.90;;;;;;5113628;28;20170;-45
2023/05/13 05:50:13;;;;;;;11.83;10.27;;;12.00;99.90;;;;;;5116902;28;20238;-44
2023/05/13 05:52:38;;;;;;;13.67;10.90;;;12.10;99.90;;;;;;5118032;28;20209;-45
2023/05/13 05:55:06;;;;;;;14.87;11.20;;;12.20;99.90;;;;;;5118039;28;20181;-46
2023/05/13 05:57:31;;;;;;;13.17;10.00;;;12.20;99.90;;;;;;5118018;28;20177;-46
2023/05/13 05:59:57;;;;;;;15.40;10.57;;;12.20;99.90;;;;;;5117730;28;20180;-44
2023/05/13 06:02:23;;;;;;;11.67;10.33;;;12.30;99.90;;;;;;5117463;28;20224;-44
2023/05/13 06:04:48;;;;;;;14.13;10.53;;;12.30;99.90;;;;;;5117908;28;20206;-44
2023/05/13 06:07:14;;;;;;;14.17;10.27;;;12.30;99.90;;;;;;5117654;28;20186;-46
2023/05/13 06:09:39;;;;;;;14.33;11.07;;;12.40;99.90;;;;;;5117657;28;20240;-46
2023/05/13 06:12:05;;;;;;;16.23;10.23;;;12.40;99.90;;;;;;5117472;28;20179;-45
2023/05/13 06:14:31;;;;;;;14.00;11.20;;;12.40;99.90;;;;;;5116205;28;20217;-46
2023/05/13 06:16:57;;;;;;;11.90;10.20;;;12.50;99.90;;;;;;5116688;28;20182;-45
2023/05/13 06:19:22;;;;;;;12.10;9.90;;;12.50;99.90;;;;;;5118062;28;20178;-43
2023/05/13 06:21:48;;;;;;;14.47;10.47;;;12.50;99.90;;;;;;5117557;28;20259;-45
2023/05/13 06:24:13;;;;;;;12.03;10.67;;;12.50;99.90;;;;;;5117187;28;20186;-44
2023/05/13 06:26:39;;;;;;;14.73;10.63;;;12.70;99.90;;;;;;5117523;28;20703;-48
2023/05/13 06:29:04;;;;;;;10.47;9.37;;;12.80;99.90;;;;;;5115971;28;20213;-45
2023/05/13 06:31:30;;;;;;;13.53;10.37;;;13.00;99.90;;;;;;5117098;28;20182;-46
2023/05/13 06:33:56;;;;;;;11.20;9.73;;;13.20;99.90;;;;;;5117013;28;20551;-46
2023/05/13 06:36:21;;;;;;;13.17;10.03;;;13.30;99.90;;;;;;5116365;28;20251;-43
2023/05/13 06:38:47;;;;;;;12.67;9.33;;;13.30;99.90;;;;;;5117713;28;20186;-45
2023/05/13 06:41:13;;;;;;;11.63;10.13;;;13.40;99.90;;;;;;5117121;28;20174;-45
2023/05/13 06:43:38;;;;;;;10.77;9.60;;;13.40;99.90;;;;;;5118585;28;20224;-43
2023/05/13 06:46:04;;;;;;;14.70;9.97;;;13.60;99.90;;;;;;5117248;28;20205;-46
2023/05/13 06:48:29;;;;;;;13.37;10.83;;;13.80;99.90;;;;;;5116950;28;20163;-43
2023/05/13 06:50:55;;;;;;;15.13;10.37;;;14.00;99.90;;;;;;5117065;28;20684;-45
2023/05/13 06:53:21;;;;;;;13.63;10.13;;;14.30;99.90;;;;;;5117022;28;20198;-44
2023/05/13 06:55:47;;;;;;;13.63;9.93;;;14.60;99.90;;;;;;5116962;28;20669;-46
2023/05/13 06:58:12;;;;;;;15.70;9.93;;;14.80;99.90;;;;;;5116825;28;20170;-45
2023/05/13 07:00:39;;;;;;;13.00;9.77;;;14.80;99.90;;;;;;5116234;28;20181;-46
2023/05/13 07:03:05;;;;;;;14.90;9.90;;;15.00;99.90;;;;;;5116475;28;20292;-46
2023/05/13 07:05:34;;;;;;;10.17;9.07;;;15.10;99.90;;;;;;5115555;28;20257;-45
2023/05/13 07:08:05;;;;;;;14.87;9.90;;;15.30;99.90;;;;;;5116842;28;20213;-45
2023/05/13 07:10:34;;;;;;;13.03;10.07;;;15.50;99.90;;;;;;5116753;28;20609;-45
2023/05/13 07:13:01;;;;;;;15.33;9.77;;;15.40;99.90;;;;;;5116256;28;20198;-44
2023/05/13 07:15:27;;;;;;;17.13;10.00;;;15.50;99.90;;;;;;5116338;28;20519;-43
2023/05/13 07:17:52;;;;;;;17.93;10.07;;;15.60;99.90;;;;;;5116152;28;20166;-46
2023/05/13 07:20:20;;;;;;;10.47;9.37;;;15.70;99.90;;;;;;5116695;28;20189;-45
2023/05/13 07:22:49;;;;;;;12.77;9.53;;;15.70;99.90;;;;;;5116547;28;20209;-42
2023/05/13 07:25:16;;;;;;;16.70;9.87;;;15.70;99.90;;;;;;5116381;28;20170;-45
2023/05/13 07:27:42;;;;;;;14.67;8.80;;;15.70;99.90;;;;;;5116178;28;20280;-46
2023/05/13 07:30:08;;;;;;;10.23;8.17;;;15.80;99.90;;;;;;5116783;28;20205;-45
2023/05/13 07:32:35;;;;;;;9.10;8.17;;;15.80;99.90;;;;;;5115892;28;20198;-45
2023/05/13 07:35:02;;;;;;;12.37;8.47;;;15.80;99.90;;;;;;5115899;28;20223;-46
2023/05/13 07:37:27;;;;;;;9.77;8.20;;;15.80;99.90;;;;;;5116373;28;20277;-47
2023/05/13 07:39:53;;;;;;;9.50;7.70;;;15.90;99.90;;;;;;5115842;28;20607;-45
2023/05/13 07:42:18;;;;;;;11.77;7.80;;;16.00;99.90;;;;;;5115884;28;20223;-45
2023/05/13 07:44:44;;;;;;;12.77;8.63;;;16.10;99.90;;;;;;5115995;28;20179;-45
2023/05/13 07:47:10;;;;;;;8.90;7.97;;;16.30;99.90;;;;;;5115903;28;20174;-46
2023/05/13 07:49:35;;;;;;;16.37;8.23;;;16.40;99.90;;;;;;5116196;28;20544;-45
2023/05/13 07:52:01;;;;;;;9.37;7.53;;;16.40;99.90;;;;;;5115760;28;20181;-45
2023/05/13 07:54:27;;;;;;;10.40;8.03;;;16.50;99.90;;;;;;5114194;28;20281;-45
2023/05/13 07:56:53;;;;;;;12.03;7.53;;;16.50;99.90;;;;;;5115736;28;20174;-46
2023/05/13 07:59:18;;;;;;;12.53;8.20;;;16.70;99.90;;;;;;5115416;28;20519;-51
2023/05/13 08:01:44;;;;;;;9.07;7.67;;;16.70;99.90;;;;;;5115259;28;20243;-52
2023/05/13 08:04:10;;;;;;;9.57;8.00;;;16.70;99.90;;;;;;5115230;28;20209;-51
2023/05/13 08:06:35;;;;;;;8.70;7.57;;;16.70;99.90;;;;;;5115501;28;20202;-51
2023/05/13 08:09:01;;;;;;;9.77;7.77;;;16.80;99.90;;;;;;5115479;28;20178;-51
2023/05/13 08:11:27;;;;;;;8.73;7.63;;;16.90;99.90;;;;;;5114828;28;20181;-51
2023/05/13 08:13:53;;;;;;;14.67;7.80;;;17.00;99.90;;;;;;5115860;28;20194;-51
2023/05/13 08:16:19;;;;;;;15.30;7.00;;;17.10;99.90;;;;;;5115079;28;20235;-51
2023/05/13 08:18:44;;;;;;;11.47;7.03;;;17.10;99.90;;;;;;5115219;28;20185;-51
2023/05/13 08:21:10;;;;;;;12.87;7.17;;;17.30;99.90;;;;;;5115152;28;20646;-52
2023/05/13 08:23:38;;;;;;;8.17;6.60;;;17.50;99.90;;;;;;5114837;28;20188;-51
2023/05/13 08:26:04;;;;;;;7.17;6.47;;;17.60;99.90;;;;;;5114938;28;20247;-53
2023/05/13 08:28:29;;;;;;;11.07;6.63;;;17.60;99.90;;;;;;5114849;28;20658;-52
2023/05/13 08:31:01;;;;;;;12.80;6.67;;;17.70;99.90;;;;;;5114757;28;20167;-51
2023/05/13 08:33:31;;;;;;;8.33;7.43;;;17.70;99.90;;;;;;5114648;28;20262;-52
2023/05/13 08:35:58;;;;;;;12.07;6.90;;;17.70;99.90;;;;;;5114786;28;20178;-51
2023/05/13 08:38:23;;;;;;;9.87;7.00;;;17.80;99.90;;;;;;5113435;28;20197;-50
2023/05/13 08:40:49;;;;;;;8.40;6.20;;;17.90;99.90;;;;;;5113359;28;20231;-53
2023/05/13 08:43:15;;;;;;;13.40;7.03;;;18.00;99.90;;;;;;5114469;28;20209;-52
2023/05/13 08:45:44;;;;;;;8.87;7.00;;;18.10;99.90;;;;;;5114745;28;20608;-53
2023/05/13 08:48:12;;;;;;;9.83;7.10;;;18.20;99.90;;;;;;5114785;28;20173;-50
2023/05/13 08:50:38;;;;;;;10.13;6.97;;;18.30;99.90;;;;;;5114675;28;20200;-51
2023/05/13 08:53:07;;;;;;;11.73;7.10;;;18.50;99.90;;;;;;5114449;28;20670;-49
2023/05/13 08:55:32;;;;;;;7.73;6.50;;;18.50;99.90;;;;;;5114516;28;20181;-50
2023/05/13 08:57:58;;;;;;;9.03;6.57;;;18.60;99.90;;;;;;5114397;28;20181;-51
2023/05/13 09:00:24;;;;;;;8.23;6.50;;;18.50;99.90;;;;;;5114697;28;20174;-50
2023/05/13 09:02:50;;;;;;;8.23;6.77;;;18.40;99.90;;;;;;5115302;28;20312;-48
2023/05/13 09:05:16;;;;;;;8.57;6.57;;;18.40;99.90;;;;;;5113985;28;20178;-50
2023/05/13 09:07:43;;;;;;;9.87;6.13;;;18.60;99.90;;;;;;5114920;28;20174;-49
2023/05/13 09:10:09;;;;;;;8.83;6.43;;;18.80;99.90;;;;;;5114129;28;20178;-51
2023/05/13 09:12:44;;;;;;;8.90;6.70;;;18.90;99.90;;;;;;5114329;28;20194;-48
2023/05/13 09:15:15;;;;;;;8.50;6.87;;;18.90;99.90;;;;;;5114085;28;20247;-51
2023/05/13 09:17:42;;;;;;;7.93;6.23;;;18.90;99.90;;;;;;5114331;28;20174;-50
2023/05/13 09:20:10;;;;;;;645.10;50.10;;;19.00;99.90;;;;;;5114005;28;20219;-51
2023/05/13 09:23:00;;;;;;;13.60;7.40;;;19.00;99.90;;;;;;5113671;28;20578;-50
2023/05/13 09:25:27;;;;;;;13.27;5.93;;;19.00;99.90;;;;;;5102887;28;20193;-50
2023/05/13 09:27:57;;;;;;;8.57;5.90;;;19.30;99.90;;;;;;5114089;28;20544;-50
2023/05/13 09:30:24;;;;;;;11.07;6.67;;;19.50;99.90;;;;;;5114134;28;20170;-50
2023/05/13 09:33:09;;;;;;;6.80;5.73;;;19.60;99.90;;;;;;5114045;28;20333;-50
2023/05/13 09:35:40;;;;;;;8.30;6.47;;;19.60;99.90;;;;;;5114021;28;20175;-51
2023/05/13 09:38:20;;;;;;;6.80;5.63;;;19.60;99.90;;;;;;5113830;28;20544;-50
2023/05/13 09:40:50;;;;;;;11.00;6.33;;;19.60;99.90;;;;;;5113709;28;20174;-49
2023/05/13 09:43:18;;;;;;;9.57;7.10;;;19.50;99.90;;;;;;5113784;28;20580;-49
2023/05/13 09:45:43;;;;;;;7.50;6.10;;;19.40;99.90;;;;;;5113729;28;20224;-49
2023/05/13 09:48:10;;;;;;;8.33;6.30;;;19.40;99.90;;;;;;5113607;28;20575;-51
2023/05/13 09:50:47;;;;;;;10.13;6.60;;;19.50;99.90;;;;;;5113969;28;20170;-51
2023/05/13 09:53:13;;;;;;;6.67;5.27;;;19.60;99.90;;;;;;5113787;28;20206;-50
2023/05/13 09:55:47;;;;;;;8.20;5.37;;;19.70;99.90;;;;;;5113855;28;20624;-50
2023/05/13 09:58:12;;;;;;;7.67;5.17;;;19.80;99.90;;;;;;5113783;28;20167;-50
2023/05/13 10:00:42;;;;;;;11.73;5.27;;;20.10;99.90;;;;;;5113788;28;20231;-50
2023/05/13 10:03:09;;;;;;;7.93;4.70;;;20.20;99.90;;;;;;5113385;28;20214;-50
2023/05/13 10:05:35;;;;;;;7.13;4.73;;;20.30;99.90;;;;;;5113942;28;20197;-50
2023/05/13 10:08:01;;;;;;;11.50;4.70;;;20.50;99.90;;;;;;5114024;28;20201;-49
2023/05/13 10:10:31;;;;;;;4.87;4.10;;;20.60;99.90;;;;;;5113563;28;20654;-49
2023/05/13 10:13:07;;;;;;;5.17;4.37;;;20.60;99.90;;;;;;5113515;28;20200;-50
2023/05/13 10:15:41;;;;;;;6.43;4.67;;;20.60;99.90;;;;;;5113512;28;20169;-49
2023/05/13 10:18:07;;;;;;;6.67;5.03;;;20.80;99.90;;;;;;5113819;28;20194;-50
2023/05/13 10:20:33;;;;;;;7.47;4.80;;;20.90;99.90;;;;;;5113487;28;20646;-49
2023/05/13 10:22:59;;;;;;;10.23;4.83;;;21.00;99.90;;;;;;5113176;28;20263;-52
2023/05/13 10:25:25;;;;;;;9.27;5.27;;;20.80;99.90;;;;;;5112122;28;20203;-49
2023/05/13 10:27:54;;;;;;;13.27;5.47;;;20.80;99.90;;;;;;5113323;28;20222;-49
2023/05/13 10:30:25;;;;;;;13.77;6.40;;;20.90;99.90;;;;;;5113576;28;20573;-49
2023/05/13 10:32:51;;;;;;;7.50;4.63;;;21.00;99.90;;;;;;5113142;28;20711;-49
2023/05/13 10:35:18;;;;;;;7.17;5.20;;;21.00;99.90;;;;;;5114666;28;20175;-47
2023/05/13 10:37:53;;;;;;;7.77;5.23;;;21.20;99.90;;;;;;5117010;28;20671;-49
2023/05/13 10:40:30;;;;;;;9.40;5.57;;;21.20;99.90;;;;;;5117028;28;20162;-49
2023/05/13 10:43:15;;;;;;;7.47;6.10;;;21.30;99.90;;;;;;5116909;28;20292;-50
2023/05/13 10:45:46;;;;;;;8.90;4.83;;;21.60;99.90;;;;;;5117429;28;20170;-50
2023/05/13 10:48:14;;;;;;;7.07;4.10;;;21.70;99.90;;;;;;5117066;28;20250;-48
2023/05/13 10:50:56;;;;;;;12.73;4.77;;;21.90;99.90;;;;;;5116983;28;20185;-49
2023/05/13 10:53:24;;;;;;;13.97;4.60;;;22.10;99.90;;;;;;5116962;28;20662;-48
2023/05/13 10:55:55;;;;;;;4.03;3.33;;;22.30;99.90;;;;;;5116941;27;20284;-49
2023/05/13 10:58:32;;;;;;;4.63;3.60;;;22.40;99.90;;;;;;5116257;28;20237;-47
2023/05/13 11:01:16;;;;;;;5.07;3.40;;;22.30;99.90;;;;;;5118107;28;20166;-47
2023/05/13 11:03:54;;;;;;;5.57;3.20;;;22.20;99.90;;;;;;5117398;28;20595;-48
2023/05/13 11:06:28;;;;;;;5.57;3.30;;;22.10;99.90;;;;;;5116816;28;20177;-48
2023/05/13 11:08:53;;;;;;;10.57;4.03;;;22.20;99.90;;;;;;5116712;28;20532;-48
2023/05/13 11:11:22;;;;;;;6.33;3.63;;;22.30;99.90;;;;;;5116611;28;20177;-49
2023/05/13 11:13:51;;;;;;;6.00;3.73;;;22.30;99.90;;;;;;5116527;28;20198;-49
2023/05/13 11:16:18;;;;;;;3.97;3.00;;;22.20;99.90;;;;;;5116285;28;20630;-49
2023/05/13 11:18:44;;;;;;;9.00;3.53;;;22.30;99.90;;;;;;5116157;28;20265;-49
2023/05/13 11:21:09;;;;;;;6.67;3.30;;;22.50;99.90;;;;;;5115998;28;20269;-49
2023/05/13 11:23:59;;;;;;;7.83;3.80;;;22.50;99.90;;;;;;5116280;28;20220;-50
2023/05/13 11:26:25;;;;;;;5.23;3.67;;;22.50;99.90;;;;;;5116318;28;20186;-48
2023/05/13 11:29:05;;;;;;;6.53;3.57;;;22.70;99.90;;;;;;5115928;28;20184;-49
2023/05/13 11:31:51;;;;;;;7.43;3.33;;;22.80;99.90;;;;;;5116566;28;20529;-49
2023/05/13 11:34:18;;;;;;;5.70;3.60;;;22.80;99.90;;;;;;5116011;28;20198;-47
2023/05/13 11:36:49;;;;;;;6.87;3.30;;;22.80;99.90;;;;;;5116075;28;20269;-49
2023/05/13 11:39:17;;;;;;;5.40;3.23;;;22.80;99.90;;;;;;5116116;27;20223;-49
2023/05/13 11:41:54;;;;;;;10.53;3.53;;;22.80;99.90;;;;;;5115704;28;20194;-50
2023/05/13 11:44:22;;;;;;;6.40;3.37;;;22.90;99.90;;;;;;5115613;28;20205;-48
2023/05/13 11:46:51;;;;;;;7.93;3.13;;;23.10;99.90;;;;;;5115575;28;20166;-48
2023/05/13 11:49:39;;;;;;;8.13;2.70;;;23.20;99.90;;;;;;5116717;28;20517;-50
2023/05/13 11:52:09;;;;;;;6.23;2.97;;;23.20;99.90;;;;;;5115401;28;20184;-48
2023/05/13 11:54:56;;;;;;;4.40;2.93;;;23.30;99.90;;;;;;5115823;28;20213;-49
2023/05/13 11:57:26;;;;;;;11.40;3.33;;;23.30;99.90;;;;;;5116005;28;20209;-48
2023/05/13 11:59:57;;;;;;;5.77;3.00;;;23.40;99.90;;;;;;5115965;28;20239;-49
2023/05/13 12:02:28;;;;;;;5.17;3.07;;;23.50;99.90;;;;;;5115220;28;20622;-49
2023/05/13 12:04:54;;;;;;;8.50;3.30;;;23.70;99.90;;;;;;5115601;28;20174;-48
2023/05/13 12:07:24;;;;;;;3.80;2.83;;;23.60;99.90;;;;;;5115492;28;20177;-49
2023/05/13 12:09:51;;;;;;;5.13;3.17;;;23.60;99.90;;;;;;5115195;28;20766;-48
2023/05/13 12:12:18;;;;;;;6.07;3.10;;;23.70;99.90;;;;;;5115362;28;20209;-47
2023/05/13 12:14:50;;;;;;;6.77;2.80;;;23.80;99.90;;;;;;5115079;28;20174;-48
2023/05/13 12:17:17;;;;;;;2.93;2.60;;;23.80;99.90;;;;;;5115399;28;20178;-48
2023/05/13 12:20:05;;;;;;;5.55;2.70;;;23.90;99.90;;;;;;5115299;28;20209;-48
2023/05/13 12:22:35;;;;;;;4.70;2.70;;;23.70;99.90;;;;;;5114811;28;20197;-48
2023/05/13 12:25:39;;;;;;;3.95;2.70;;;23.80;99.90;;;;;;5115136;28;20229;-48
2023/05/13 12:28:22;;;;;;;7.05;2.70;;;23.90;99.90;;;;;;5112056;28;20188;-49
2023/05/13 12:30:58;;;;;;;2.87;2.40;;;24.00;99.90;;;;;;5115099;28;20170;-49
2023/05/13 12:33:29;;;;;;;5.43;2.70;;;24.10;99.90;;;;;;5114995;28;20202;-48
2023/05/13 12:36:22;;;;;;;2.83;2.60;;;24.10;99.90;;;;;;5114525;28;20182;-48
2023/05/13 12:38:57;;;;;;;2.88;2.30;;;24.20;99.90;;;;;;5113309;28;20550;-48
2023/05/13 12:41:24;;;;;;;9.05;2.72;;;24.20;99.90;;;;;;5114768;28;20188;-47